sensor_id;sensor_type;location;lat;lon;timestamp;temperature;humidity
65864;SHT30;52639;51.180;20.460;2024-01-15T00:01:48;-0.58;95.95
65864;SHT30;52639;51.180;20.460;2024-01-15T00:05:54;-0.65;95.63
65864;SHT30;52639;51.180;20.460;2024-01-15T00:09:59;-0.68;95.75
65864;SHT30;52639;51.180;20.460;2024-01-15T00:14:32;-0.64;95.77
65864;SHT30;52639;51.180;20.460;2024-01-15T01:23:57;-0.68;95.72
65864;SHT30;52639;51.180;20.460;2024-01-15T01:28:59;-0.64;95.32
65864;SHT30;52639;51.180;20.460;2024-01-15T01:34:20;-0.75;95.36
65864;SHT30;52639;51.180;20.460;2024-01-15T01:55:02;-0.79;95.11
65864;SHT30;52639;51.180;20.460;2024-01-15T01:59:46;-0.74;95.26
65864;SHT30;52639;51.180;20.460;2024-01-15T02:52:12;-0.69;94.73
65864;SHT30;52639;51.180;20.460;2024-01-15T03:23:23;-0.85;94.91
65864;SHT30;52639;51.180;20.460;2024-01-15T03:50:06;-0.75;95.45
65864;SHT30;52639;51.180;20.460;2024-01-15T03:55:16;-0.74;95.46
65864;SHT30;52639;51.180;20.460;2024-01-15T04:20:31;-0.75;95.23
65864;SHT30;52639;51.180;20.460;2024-01-15T05:19:09;-0.67;94.44
65864;SHT30;52639;51.180;20.460;2024-01-15T05:23:24;-0.72;94.45
65864;SHT30;52639;51.180;20.460;2024-01-15T05:27:46;-0.72;94.37
65864;SHT30;52639;51.180;20.460;2024-01-15T05:31:53;-0.67;94.18
65864;SHT30;52639;51.180;20.460;2024-01-15T05:36:08;-0.68;94.16
65864;SHT30;52639;51.180;20.460;2024-01-15T05:40:19;-0.68;94.03
65864;SHT30;52639;51.180;20.460;2024-01-15T05:44:30;-0.68;94.23
65864;SHT30;52639;51.180;20.460;2024-01-15T05:49:21;-0.74;94.23
65864;SHT30;52639;51.180;20.460;2024-01-15T05:59:35;-0.72;94.36
65864;SHT30;52639;51.180;20.460;2024-01-15T06:34:45;-0.85;95.15
65864;SHT30;52639;51.180;20.460;2024-01-15T06:39:09;-0.85;95.13
65864;SHT30;52639;51.180;20.460;2024-01-15T06:43:47;-0.81;95.27
65864;SHT30;52639;51.180;20.460;2024-01-15T06:48:09;-0.82;95.25
65864;SHT30;52639;51.180;20.460;2024-01-15T07:06:27;-0.65;94.97
65864;SHT30;52639;51.180;20.460;2024-01-15T07:11:08;-0.57;94.81
65864;SHT30;52639;51.180;20.460;2024-01-15T07:15:39;-0.45;94.63
65864;SHT30;52639;51.180;20.460;2024-01-15T07:19:49;-0.37;94.46
65864;SHT30;52639;51.180;20.460;2024-01-15T07:24:39;-0.06;94.11
65864;SHT30;52639;51.180;20.460;2024-01-15T07:28:51;-0.07;93.68
65864;SHT30;52639;51.180;20.460;2024-01-15T07:38:28;0.04;93.32
65864;SHT30;52639;51.180;20.460;2024-01-15T07:42:39;0.03;93.13
65864;SHT30;52639;51.180;20.460;2024-01-15T07:46:45;-0.09;92.95
65864;SHT30;52639;51.180;20.460;2024-01-15T07:51:11;-0.17;93.32
65864;SHT30;52639;51.180;20.460;2024-01-15T07:55:16;-0.24;93.46
65864;SHT30;52639;51.180;20.460;2024-01-15T07:59:29;-0.21;93.73
65864;SHT30;52639;51.180;20.460;2024-01-15T08:03:50;-0.21;94.02
65864;SHT30;52639;51.180;20.460;2024-01-15T08:07:58;-0.28;94.08
65864;SHT30;52639;51.180;20.460;2024-01-15T08:12:13;-0.37;94.54
65864;SHT30;52639;51.180;20.460;2024-01-15T08:16:30;-0.37;94.50
65864;SHT30;52639;51.180;20.460;2024-01-15T08:21:06;-0.33;94.53
65864;SHT30;52639;51.180;20.460;2024-01-15T08:25:09;-0.36;94.71
65864;SHT30;52639;51.180;20.460;2024-01-15T08:29:42;-0.41;94.56
65864;SHT30;52639;51.180;20.460;2024-01-15T08:34:06;-0.51;94.80
65864;SHT30;52639;51.180;20.460;2024-01-15T08:38:11;-0.57;95.13
65864;SHT30;52639;51.180;20.460;2024-01-15T08:42:16;-0.53;95.24
65864;SHT30;52639;51.180;20.460;2024-01-15T08:46:21;-0.54;95.30
65864;SHT30;52639;51.180;20.460;2024-01-15T08:50:26;-0.56;95.44
65864;SHT30;52639;51.180;20.460;2024-01-15T08:54:33;-0.47;95.39
65864;SHT30;52639;51.180;20.460;2024-01-15T08:58:47;-0.37;95.24
65864;SHT30;52639;51.180;20.460;2024-01-15T09:02:59;-0.20;94.90
65864;SHT30;52639;51.180;20.460;2024-01-15T09:07:07;-0.17;94.72
65864;SHT30;52639;51.180;20.460;2024-01-15T09:11:12;-0.18;94.66
65864;SHT30;52639;51.180;20.460;2024-01-15T09:15:16;0.06;95.04
65864;SHT30;52639;51.180;20.460;2024-01-15T09:19:19;0.06;94.08
65864;SHT30;52639;51.180;20.460;2024-01-15T09:23:27;0.42;93.43
65864;SHT30;52639;51.180;20.460;2024-01-15T09:27:35;0.51;93.09
65864;SHT30;52639;51.180;20.460;2024-01-15T09:31:47;0.79;91.97
65864;SHT30;52639;51.180;20.460;2024-01-15T09:36:02;2.25;89.11
65864;SHT30;52639;51.180;20.460;2024-01-15T09:40:38;3.92;84.47
65864;SHT30;52639;51.180;20.460;2024-01-15T09:44:42;3.26;84.56
65864;SHT30;52639;51.180;20.460;2024-01-15T09:48:46;3.01;86.26
65864;SHT30;52639;51.180;20.460;2024-01-15T09:53:02;3.11;85.89
65864;SHT30;52639;51.180;20.460;2024-01-15T09:57:08;3.14;88.91
65864;SHT30;52639;51.180;20.460;2024-01-15T10:01:12;2.46;86.87
65864;SHT30;52639;51.180;20.460;2024-01-15T10:05:16;2.10;89.11
65864;SHT30;52639;51.180;20.460;2024-01-15T10:09:20;1.71;89.24
65864;SHT30;52639;51.180;20.460;2024-01-15T10:13:28;1.71;89.64
65864;SHT30;52639;51.180;20.460;2024-01-15T10:17:31;1.66;90.85
65864;SHT30;52639;51.180;20.460;2024-01-15T10:21:35;1.67;89.29
65864;SHT30;52639;51.180;20.460;2024-01-15T10:25:38;1.23;90.74
65864;SHT30;52639;51.180;20.460;2024-01-15T10:29:46;1.22;91.30
65864;SHT30;52639;51.180;20.460;2024-01-15T10:34:11;1.23;89.42
65864;SHT30;52639;51.180;20.460;2024-01-15T10:38:23;1.25;89.18
65864;SHT30;52639;51.180;20.460;2024-01-15T10:42:32;0.95;90.78
65864;SHT30;52639;51.180;20.460;2024-01-15T10:46:37;1.03;90.61
65864;SHT30;52639;51.180;20.460;2024-01-15T10:54:52;1.71;88.50
65864;SHT30;52639;51.180;20.460;2024-01-15T10:58:57;1.59;87.03
65864;SHT30;52639;51.180;20.460;2024-01-15T11:03:19;1.82;87.37
65864;SHT30;52639;51.180;20.460;2024-01-15T11:07:43;1.75;86.91
65864;SHT30;52639;51.180;20.460;2024-01-15T11:11:47;1.77;87.78
65864;SHT30;52639;51.180;20.460;2024-01-15T11:15:56;1.87;87.38
65864;SHT30;52639;51.180;20.460;2024-01-15T11:20:07;1.68;87.32
65864;SHT30;52639;51.180;20.460;2024-01-15T11:24:33;1.27;87.33
65864;SHT30;52639;51.180;20.460;2024-01-15T11:41:17;1.37;87.31
65864;SHT30;52639;51.180;20.460;2024-01-15T11:45:20;1.22;87.43
65864;SHT30;52639;51.180;20.460;2024-01-15T11:49:31;1.26;89.09
65864;SHT30;52639;51.180;20.460;2024-01-15T11:57:57;1.51;86.16
65864;SHT30;52639;51.180;20.460;2024-01-15T12:02:02;1.53;87.76
65864;SHT30;52639;51.180;20.460;2024-01-15T12:06:06;1.56;85.81
65864;SHT30;52639;51.180;20.460;2024-01-15T12:10:09;1.51;85.07
65864;SHT30;52639;51.180;20.460;2024-01-15T12:14:15;1.36;86.81
65864;SHT30;52639;51.180;20.460;2024-01-15T12:18:18;1.35;87.23
65864;SHT30;52639;51.180;20.460;2024-01-15T12:22:21;1.30;87.66
65864;SHT30;52639;51.180;20.460;2024-01-15T12:26:24;1.20;87.98
65864;SHT30;52639;51.180;20.460;2024-01-15T12:30:31;1.42;88.94
65864;SHT30;52639;51.180;20.460;2024-01-15T12:34:35;1.29;86.77
65864;SHT30;52639;51.180;20.460;2024-01-15T12:43:40;1.36;87.16
65864;SHT30;52639;51.180;20.460;2024-01-15T12:47:46;1.27;87.68
65864;SHT30;52639;51.180;20.460;2024-01-15T12:51:52;1.32;87.87
65864;SHT30;52639;51.180;20.460;2024-01-15T12:55:55;1.37;85.36
65864;SHT30;52639;51.180;20.460;2024-01-15T12:59:59;1.12;84.58
65864;SHT30;52639;51.180;20.460;2024-01-15T13:04:06;1.09;88.09
65864;SHT30;52639;51.180;20.460;2024-01-15T13:08:13;0.73;88.60
65864;SHT30;52639;51.180;20.460;2024-01-15T13:12:18;0.89;88.28
65864;SHT30;52639;51.180;20.460;2024-01-15T13:21:32;0.83;85.96
65864;SHT30;52639;51.180;20.460;2024-01-15T13:25:35;0.93;87.20
65864;SHT30;52639;51.180;20.460;2024-01-15T13:29:42;0.57;87.19
65864;SHT30;52639;51.180;20.460;2024-01-15T13:33:46;0.45;87.54
65864;SHT30;52639;51.180;20.460;2024-01-15T13:37:54;0.34;87.02
65864;SHT30;52639;51.180;20.460;2024-01-15T13:41:57;0.36;87.16
65864;SHT30;52639;51.180;20.460;2024-01-15T13:46:01;0.41;88.91
65864;SHT30;52639;51.180;20.460;2024-01-15T13:50:07;0.32;87.96
65864;SHT30;52639;51.180;20.460;2024-01-15T13:54:12;0.22;87.54
65864;SHT30;52639;51.180;20.460;2024-01-15T13:58:15;0.21;88.65
65864;SHT30;52639;51.180;20.460;2024-01-15T14:02:44;0.15;89.65
65864;SHT30;52639;51.180;20.460;2024-01-15T14:06:59;0.14;89.14
65864;SHT30;52639;51.180;20.460;2024-01-15T14:11:04;0.10;90.41
65864;SHT30;52639;51.180;20.460;2024-01-15T14:15:17;0.06;90.17
65864;SHT30;52639;51.180;20.460;2024-01-15T14:19:23;0.00;90.04
65864;SHT30;52639;51.180;20.460;2024-01-15T14:23:26;-0.10;91.39
65864;SHT30;52639;51.180;20.460;2024-01-15T14:27:40;-0.21;90.96
65864;SHT30;52639;51.180;20.460;2024-01-15T14:31:43;-0.30;90.02
65864;SHT30;52639;51.180;20.460;2024-01-15T14:35:52;-0.24;90.37
65864;SHT30;52639;51.180;20.460;2024-01-15T14:39:55;-0.24;89.45
65864;SHT30;52639;51.180;20.460;2024-01-15T14:44:00;-0.21;90.23
65864;SHT30;52639;51.180;20.460;2024-01-15T14:48:04;-0.26;89.81
65864;SHT30;52639;51.180;20.460;2024-01-15T14:52:07;-0.33;89.34
65864;SHT30;52639;51.180;20.460;2024-01-15T14:56:10;-0.41;89.38
65864;SHT30;52639;51.180;20.460;2024-01-15T15:00:29;-0.50;90.44
65864;SHT30;52639;51.180;20.460;2024-01-15T15:04:32;-0.54;90.04
65864;SHT30;52639;51.180;20.460;2024-01-15T15:08:39;-0.53;90.16
65864;SHT30;52639;51.180;20.460;2024-01-15T15:12:42;-0.45;89.27
65864;SHT30;52639;51.180;20.460;2024-01-15T15:16:46;-0.44;89.45
65864;SHT30;52639;51.180;20.460;2024-01-15T15:20:49;-0.45;90.26
65864;SHT30;52639;51.180;20.460;2024-01-15T15:25:05;-0.57;89.99
65864;SHT30;52639;51.180;20.460;2024-01-15T15:29:10;-0.58;88.81
65864;SHT30;52639;51.180;20.460;2024-01-15T15:33:19;-0.60;89.84
65864;SHT30;52639;51.180;20.460;2024-01-15T15:37:23;-0.58;90.19
65864;SHT30;52639;51.180;20.460;2024-01-15T15:41:26;-0.61;89.87
65864;SHT30;52639;51.180;20.460;2024-01-15T15:45:29;-0.61;89.20
65864;SHT30;52639;51.180;20.460;2024-01-15T15:49:35;-0.61;89.20
65864;SHT30;52639;51.180;20.460;2024-01-15T15:53:41;-0.62;88.69
65864;SHT30;52639;51.180;20.460;2024-01-15T15:57:44;-0.62;89.94
65864;SHT30;52639;51.180;20.460;2024-01-15T16:01:49;-0.64;89.61
65864;SHT30;52639;51.180;20.460;2024-01-15T16:05:54;-0.61;89.49
65864;SHT30;52639;51.180;20.460;2024-01-15T16:10:00;-0.60;88.99
65864;SHT30;52639;51.180;20.460;2024-01-15T16:14:03;-0.61;89.07
65864;SHT30;52639;51.180;20.460;2024-01-15T16:18:06;-0.68;89.19
65864;SHT30;52639;51.180;20.460;2024-01-15T16:22:11;-0.68;90.35
65864;SHT30;52639;51.180;20.460;2024-01-15T16:26:15;-0.74;90.05
65864;SHT30;52639;51.180;20.460;2024-01-15T16:30:18;-0.75;90.66
65864;SHT30;52639;51.180;20.460;2024-01-15T16:34:26;-0.75;90.68
65864;SHT30;52639;51.180;20.460;2024-01-15T16:38:39;-0.75;90.36
65864;SHT30;52639;51.180;20.460;2024-01-15T16:42:42;-0.84;90.64
65864;SHT30;52639;51.180;20.460;2024-01-15T16:46:49;-0.92;91.06
65864;SHT30;52639;51.180;20.460;2024-01-15T16:50:54;-1.02;91.24
65864;SHT30;52639;51.180;20.460;2024-01-15T16:55:02;-1.09;91.73
65864;SHT30;52639;51.180;20.460;2024-01-15T16:59:15;-1.08;91.95
65864;SHT30;52639;51.180;20.460;2024-01-15T17:03:21;-1.11;91.60
65864;SHT30;52639;51.180;20.460;2024-01-15T17:07:24;-1.17;91.50
65864;SHT30;52639;51.180;20.460;2024-01-15T17:11:38;-1.26;91.72
65864;SHT30;52639;51.180;20.460;2024-01-15T17:15:52;-1.47;91.68
65864;SHT30;52639;51.180;20.460;2024-01-15T17:19:57;-1.32;92.61
65864;SHT30;52639;51.180;20.460;2024-01-15T17:24:05;-1.20;91.47
65864;SHT30;52639;51.180;20.460;2024-01-15T17:28:11;-1.32;91.98
65864;SHT30;52639;51.180;20.460;2024-01-15T17:32:23;-1.16;91.90
65864;SHT30;52639;51.180;20.460;2024-01-15T17:36:26;-1.26;91.40
65864;SHT30;52639;51.180;20.460;2024-01-15T17:40:29;-1.16;92.07
65864;SHT30;52639;51.180;20.460;2024-01-15T17:44:37;-1.15;91.86
65864;SHT30;52639;51.180;20.460;2024-01-15T17:48:41;-1.09;91.86
65864;SHT30;52639;51.180;20.460;2024-01-15T17:52:44;-1.05;91.23
65864;SHT30;52639;51.180;20.460;2024-01-15T17:56:50;-1.08;91.37
65864;SHT30;52639;51.180;20.460;2024-01-15T18:00:55;-1.15;91.17
65864;SHT30;52639;51.180;20.460;2024-01-15T18:04:59;-1.05;91.71
65864;SHT30;52639;51.180;20.460;2024-01-15T18:09:05;-1.09;91.12
65864;SHT30;52639;51.180;20.460;2024-01-15T18:13:11;-1.23;91.09
65864;SHT30;52639;51.180;20.460;2024-01-15T18:17:44;-1.42;91.61
65864;SHT30;52639;51.180;20.460;2024-01-15T18:21:47;-1.32;91.85
65864;SHT30;52639;51.180;20.460;2024-01-15T18:26:01;-1.19;91.72
65864;SHT30;52639;51.180;20.460;2024-01-15T18:30:34;-1.08;91.38
65864;SHT30;52639;51.180;20.460;2024-01-15T18:34:58;-0.99;90.19
65864;SHT30;52639;51.180;20.460;2024-01-15T18:39:03;-0.91;90.10
65864;SHT30;52639;51.180;20.460;2024-01-15T18:43:14;-0.92;90.49
65864;SHT30;52639;51.180;20.460;2024-01-15T18:47:21;-0.85;90.91
65864;SHT30;52639;51.180;20.460;2024-01-15T18:51:35;-0.89;90.28
65864;SHT30;52639;51.180;20.460;2024-01-15T18:55:43;-0.82;90.23
65864;SHT30;52639;51.180;20.460;2024-01-15T18:59:47;-1.12;90.19
65864;SHT30;52639;51.180;20.460;2024-01-15T19:03:52;-1.19;91.80
65864;SHT30;52639;51.180;20.460;2024-01-15T19:08:05;-1.15;91.58
65864;SHT30;52639;51.180;20.460;2024-01-15T19:12:08;-1.19;92.06
65864;SHT30;52639;51.180;20.460;2024-01-15T19:16:17;-1.20;91.93
65864;SHT30;52639;51.180;20.460;2024-01-15T19:20:29;-1.09;92.21
65864;SHT30;52639;51.180;20.460;2024-01-15T19:24:46;-1.15;91.73
65864;SHT30;52639;51.180;20.460;2024-01-15T19:29:03;-1.15;92.17
65864;SHT30;52639;51.180;20.460;2024-01-15T19:33:31;-1.01;91.71
65864;SHT30;52639;51.180;20.460;2024-01-15T19:37:45;-1.13;91.50
65864;SHT30;52639;51.180;20.460;2024-01-15T19:42:13;-1.47;91.85
65864;SHT30;52639;51.180;20.460;2024-01-15T19:46:21;-1.62;92.77
65864;SHT30;52639;51.180;20.460;2024-01-15T19:50:25;-1.57;92.64
65864;SHT30;52639;51.180;20.460;2024-01-15T19:54:33;-1.60;92.58
65864;SHT30;52639;51.180;20.460;2024-01-15T19:58:42;-1.60;92.70
65864;SHT30;52639;51.180;20.460;2024-01-15T20:02:45;-1.56;93.20
65864;SHT30;52639;51.180;20.460;2024-01-15T20:06:49;-1.40;93.16
65864;SHT30;52639;51.180;20.460;2024-01-15T20:10:52;-1.25;92.52
65864;SHT30;52639;51.180;20.460;2024-01-15T20:14:59;-1.16;92.39
65864;SHT30;52639;51.180;20.460;2024-01-15T20:19:02;-1.12;92.27
65864;SHT30;52639;51.180;20.460;2024-01-15T20:23:05;-1.01;92.00
65864;SHT30;52639;51.180;20.460;2024-01-15T20:27:10;-0.91;91.48
65864;SHT30;52639;51.180;20.460;2024-01-15T20:31:15;-0.85;91.20
65864;SHT30;52639;51.180;20.460;2024-01-15T20:35:21;-0.81;91.36
65864;SHT30;52639;51.180;20.460;2024-01-15T20:39:24;-0.77;91.39
65864;SHT30;52639;51.180;20.460;2024-01-15T20:43:30;-0.72;91.44
65864;SHT30;52639;51.180;20.460;2024-01-15T20:47:37;-0.75;90.86
65864;SHT30;52639;51.180;20.460;2024-01-15T20:51:42;-0.79;90.91
65864;SHT30;52639;51.180;20.460;2024-01-15T20:55:46;-0.74;91.16
65864;SHT30;52639;51.180;20.460;2024-01-15T21:00:26;-0.75;91.55
65864;SHT30;52639;51.180;20.460;2024-01-15T21:04:30;-0.69;91.40
65864;SHT30;52639;51.180;20.460;2024-01-15T21:08:34;-0.72;91.46
65864;SHT30;52639;51.180;20.460;2024-01-15T21:12:38;-0.72;91.47
65864;SHT30;52639;51.180;20.460;2024-01-15T21:16:57;-0.78;91.69
65864;SHT30;52639;51.180;20.460;2024-01-15T21:21:03;-1.15;93.20
65864;SHT30;52639;51.180;20.460;2024-01-15T21:25:06;-1.46;94.45
65864;SHT30;52639;51.180;20.460;2024-01-15T21:29:11;-1.60;95.33
65864;SHT30;52639;51.180;20.460;2024-01-15T21:33:16;-1.66;95.28
65864;SHT30;52639;51.180;20.460;2024-01-15T21:37:21;-1.71;95.87
65864;SHT30;52639;51.180;20.460;2024-01-15T21:41:24;-1.73;95.98
65864;SHT30;52639;51.180;20.460;2024-01-15T21:45:27;-1.76;96.02
